Rankin, Texas
Current Conditions -  °F | °C
As of 3:53 AM on Sunday 26 Oct 2014 (Local Time) from KMAF Reporting Station
Clear Clear  
Wind Chill: 65°   Ceiling: Unl
Heat Index: 65°   Visibility: 10mi
Dew Point: 55°   Wind: 9mph
Humidity: 70%   Direction: 200°SSW
Pressure: 30.05"   Gusts: NA
Location:  31.22°N, 101.94°W
Report Text: KMAF 260853Z AUTO 20008KT 10SM CLR 18/13 A3005 RMK AO2 SLP132 T01830128 56014
Loading
Personal Weather Stations






























Interactive Weather Map
Tropical Storm Tracking
New forecast layout! Learn more

10-Day Weather Forecast

Advertisements
Track Severe Weather on mobile